sensor_id;sensor_type;location;lat;lon;timestamp;P1;durP1;ratioP1;P2;durP2;ratioP2
38224;SDS011;24025;48.138;11.428;2023-04-06T00:02:13;11.23;;;4.85;;
38224;SDS011;24025;48.138;11.428;2023-04-06T00:04:45;8.25;;;4.30;;
38224;SDS011;24025;48.138;11.428;2023-04-06T00:07:16;7.00;;;3.63;;
38224;SDS011;24025;48.138;11.428;2023-04-06T00:09:48;11.13;;;3.45;;
38224;SDS011;24025;48.138;11.428;2023-04-06T00:12:20;8.60;;;3.72;;
38224;SDS011;24025;48.138;11.428;2023-04-06T00:14:52;8.30;;;4.38;;
38224;SDS011;24025;48.138;11.428;2023-04-06T00:17:23;8.00;;;3.85;;
38224;SDS011;24025;48.138;11.428;2023-04-06T00:19:55;6.90;;;4.25;;
38224;SDS011;24025;48.138;11.428;2023-04-06T00:22:27;5.93;;;3.38;;
38224;SDS011;24025;48.138;11.428;2023-04-06T00:24:59;7.78;;;3.17;;
38224;SDS011;24025;48.138;11.428;2023-04-06T00:27:31;7.40;;;2.92;;
38224;SDS011;24025;48.138;11.428;2023-04-06T00:30:06;6.50;;;3.27;;
38224;SDS011;24025;48.138;11.428;2023-04-06T00:32:38;7.53;;;3.38;;
38224;SDS011;24025;48.138;11.428;2023-04-06T00:35:10;7.53;;;3.58;;
38224;SDS011;24025;48.138;11.428;2023-04-06T00:37:42;7.75;;;3.80;;
38224;SDS011;24025;48.138;11.428;2023-04-06T00:40:17;6.68;;;3.55;;
38224;SDS011;24025;48.138;11.428;2023-04-06T00:42:49;8.45;;;4.43;;
38224;SDS011;24025;48.138;11.428;2023-04-06T00:45:21;9.65;;;3.70;;
38224;SDS011;24025;48.138;11.428;2023-04-06T00:47:52;4.85;;;3.20;;
38224;SDS011;24025;48.138;11.428;2023-04-06T00:50:24;6.90;;;3.42;;
38224;SDS011;24025;48.138;11.428;2023-04-06T00:52:56;6.07;;;3.35;;
38224;SDS011;24025;48.138;11.428;2023-04-06T00:55:28;6.35;;;3.50;;
38224;SDS011;24025;48.138;11.428;2023-04-06T00:58:00;6.35;;;3.33;;
38224;SDS011;24025;48.138;11.428;2023-04-06T01:00:32;9.13;;;3.40;;
38224;SDS011;24025;48.138;11.428;2023-04-06T01:03:04;5.30;;;3.30;;
38224;SDS011;24025;48.138;11.428;2023-04-06T01:05:37;5.70;;;3.10;;
38224;SDS011;24025;48.138;11.428;2023-04-06T01:08:11;7.47;;;3.42;;
38224;SDS011;24025;48.138;11.428;2023-04-06T01:10:43;6.40;;;3.08;;
38224;SDS011;24025;48.138;11.428;2023-04-06T01:13:15;4.78;;;2.80;;
38224;SDS011;24025;48.138;11.428;2023-04-06T01:15:48;4.43;;;2.88;;
38224;SDS011;24025;48.138;11.428;2023-04-06T01:18:25;5.18;;;2.97;;
38224;SDS011;24025;48.138;11.428;2023-04-06T01:21:00;5.82;;;3.70;;
38224;SDS011;24025;48.138;11.428;2023-04-06T01:23:32;6.97;;;3.17;;
38224;SDS011;24025;48.138;11.428;2023-04-06T01:26:04;3.97;;;2.72;;
38224;SDS011;24025;48.138;11.428;2023-04-06T01:28:35;9.80;;;3.13;;
38224;SDS011;24025;48.138;11.428;2023-04-06T01:31:09;6.20;;;2.90;;
38224;SDS011;24025;48.138;11.428;2023-04-06T01:33:41;9.32;;;3.08;;
38224;SDS011;24025;48.138;11.428;2023-04-06T01:36:12;3.65;;;2.70;;
38224;SDS011;24025;48.138;11.428;2023-04-06T01:38:44;5.10;;;2.92;;
38224;SDS011;24025;48.138;11.428;2023-04-06T01:41:15;4.53;;;3.03;;
38224;SDS011;24025;48.138;11.428;2023-04-06T01:43:47;4.80;;;3.00;;
38224;SDS011;24025;48.138;11.428;2023-04-06T01:46:20;4.85;;;2.90;;
38224;SDS011;24025;48.138;11.428;2023-04-06T01:48:52;4.25;;;2.67;;
38224;SDS011;24025;48.138;11.428;2023-04-06T01:51:24;5.30;;;3.15;;
38224;SDS011;24025;48.138;11.428;2023-04-06T01:56:28;5.55;;;3.03;;
38224;SDS011;24025;48.138;11.428;2023-04-06T01:59:00;5.20;;;2.90;;
38224;SDS011;24025;48.138;11.428;2023-04-06T02:01:31;7.80;;;2.92;;
38224;SDS011;24025;48.138;11.428;2023-04-06T02:04:03;9.73;;;3.13;;
38224;SDS011;24025;48.138;11.428;2023-04-06T02:06:35;6.95;;;3.08;;
38224;SDS011;24025;48.138;11.428;2023-04-06T02:09:06;6.43;;;2.78;;
38224;SDS011;24025;48.138;11.428;2023-04-06T02:11:38;6.80;;;3.25;;
38224;SDS011;24025;48.138;11.428;2023-04-06T02:14:10;5.15;;;2.65;;
38224;SDS011;24025;48.138;11.428;2023-04-06T02:16:44;5.80;;;2.40;;
38224;SDS011;24025;48.138;11.428;2023-04-06T02:19:15;4.00;;;2.50;;
38224;SDS011;24025;48.138;11.428;2023-04-06T02:24:18;4.85;;;2.40;;
38224;SDS011;24025;48.138;11.428;2023-04-06T02:26:50;6.15;;;2.78;;
38224;SDS011;24025;48.138;11.428;2023-04-06T02:29:22;4.32;;;2.40;;
38224;SDS011;24025;48.138;11.428;2023-04-06T02:31:53;6.43;;;2.60;;
38224;SDS011;24025;48.138;11.428;2023-04-06T02:34:26;3.55;;;2.17;;
38224;SDS011;24025;48.138;11.428;2023-04-06T02:36:57;3.77;;;2.90;;
38224;SDS011;24025;48.138;11.428;2023-04-06T02:39:29;5.53;;;2.85;;
38224;SDS011;24025;48.138;11.428;2023-04-06T02:42:01;2.92;;;2.13;;
38224;SDS011;24025;48.138;11.428;2023-04-06T02:44:32;2.97;;;2.30;;
38224;SDS011;24025;48.138;11.428;2023-04-06T02:47:04;4.30;;;2.47;;
38224;SDS011;24025;48.138;11.428;2023-04-06T02:49:36;4.32;;;2.60;;
38224;SDS011;24025;48.138;11.428;2023-04-06T02:52:08;4.47;;;2.03;;
38224;SDS011;24025;48.138;11.428;2023-04-06T02:54:39;11.73;;;3.13;;
38224;SDS011;24025;48.138;11.428;2023-04-06T02:59:42;6.15;;;2.53;;
38224;SDS011;24025;48.138;11.428;2023-04-06T03:02:14;6.68;;;2.70;;
38224;SDS011;24025;48.138;11.428;2023-04-06T03:04:46;6.55;;;2.78;;
38224;SDS011;24025;48.138;11.428;2023-04-06T03:07:18;6.63;;;2.78;;
38224;SDS011;24025;48.138;11.428;2023-04-06T03:09:49;7.63;;;2.97;;
38224;SDS011;24025;48.138;11.428;2023-04-06T03:12:22;3.17;;;2.35;;
38224;SDS011;24025;48.138;11.428;2023-04-06T03:14:53;6.20;;;2.80;;
38224;SDS011;24025;48.138;11.428;2023-04-06T03:17:27;3.30;;;2.28;;
38224;SDS011;24025;48.138;11.428;2023-04-06T03:19:59;3.13;;;2.22;;
38224;SDS011;24025;48.138;11.428;2023-04-06T03:22:31;4.47;;;2.83;;
38224;SDS011;24025;48.138;11.428;2023-04-06T03:25:02;4.57;;;2.40;;
38224;SDS011;24025;48.138;11.428;2023-04-06T03:27:35;8.70;;;2.90;;
38224;SDS011;24025;48.138;11.428;2023-04-06T03:30:06;5.53;;;2.97;;
38224;SDS011;24025;48.138;11.428;2023-04-06T03:32:38;12.02;;;3.20;;
38224;SDS011;24025;48.138;11.428;2023-04-06T03:35:10;8.18;;;3.08;;
38224;SDS011;24025;48.138;11.428;2023-04-06T03:42:47;7.53;;;3.20;;
38224;SDS011;24025;48.138;11.428;2023-04-06T03:45:19;9.33;;;3.13;;
38224;SDS011;24025;48.138;11.428;2023-04-06T03:47:51;6.28;;;2.85;;
38224;SDS011;24025;48.138;11.428;2023-04-06T03:50:22;6.53;;;2.95;;
38224;SDS011;24025;48.138;11.428;2023-04-06T03:52:54;6.05;;;2.95;;
38224;SDS011;24025;48.138;11.428;2023-04-06T03:55:26;5.57;;;2.85;;
38224;SDS011;24025;48.138;11.428;2023-04-06T03:57:58;5.73;;;3.23;;
38224;SDS011;24025;48.138;11.428;2023-04-06T04:00:29;3.05;;;2.17;;
38224;SDS011;24025;48.138;11.428;2023-04-06T04:03:01;7.57;;;3.40;;
38224;SDS011;24025;48.138;11.428;2023-04-06T04:05:33;4.97;;;2.90;;
38224;SDS011;24025;48.138;11.428;2023-04-06T04:08:05;4.05;;;3.08;;
38224;SDS011;24025;48.138;11.428;2023-04-06T04:10:37;6.90;;;2.90;;
38224;SDS011;24025;48.138;11.428;2023-04-06T04:13:08;4.80;;;3.08;;
38224;SDS011;24025;48.138;11.428;2023-04-06T04:15:40;7.70;;;3.58;;
38224;SDS011;24025;48.138;11.428;2023-04-06T04:18:11;8.37;;;3.50;;
38224;SDS011;24025;48.138;11.428;2023-04-06T04:20:43;10.05;;;4.25;;
38224;SDS011;24025;48.138;11.428;2023-04-06T04:23:15;9.18;;;3.35;;
38224;SDS011;24025;48.138;11.428;2023-04-06T04:25:46;5.32;;;3.42;;
38224;SDS011;24025;48.138;11.428;2023-04-06T04:28:18;7.43;;;3.28;;
38224;SDS011;24025;48.138;11.428;2023-04-06T04:30:50;7.13;;;3.80;;
38224;SDS011;24025;48.138;11.428;2023-04-06T04:33:21;11.55;;;3.63;;
38224;SDS011;24025;48.138;11.428;2023-04-06T04:38:25;9.63;;;3.30;;
38224;SDS011;24025;48.138;11.428;2023-04-06T04:40:57;7.80;;;3.00;;
38224;SDS011;24025;48.138;11.428;2023-04-06T04:43:28;6.60;;;3.60;;
38224;SDS011;24025;48.138;11.428;2023-04-06T04:46:03;7.88;;;3.70;;
38224;SDS011;24025;48.138;11.428;2023-04-06T04:48:37;7.60;;;3.45;;
38224;SDS011;24025;48.138;11.428;2023-04-06T04:51:10;10.77;;;3.17;;
38224;SDS011;24025;48.138;11.428;2023-04-06T04:56:14;5.70;;;3.00;;
38224;SDS011;24025;48.138;11.428;2023-04-06T05:01:17;7.65;;;3.15;;
38224;SDS011;24025;48.138;11.428;2023-04-06T05:03:50;4.93;;;3.25;;
38224;SDS011;24025;48.138;11.428;2023-04-06T05:06:22;5.13;;;3.28;;
38224;SDS011;24025;48.138;11.428;2023-04-06T05:08:53;8.07;;;3.33;;
38224;SDS011;24025;48.138;11.428;2023-04-06T05:11:25;5.82;;;3.22;;
38224;SDS011;24025;48.138;11.428;2023-04-06T05:13:57;7.57;;;4.30;;
38224;SDS011;24025;48.138;11.428;2023-04-06T05:16:32;5.28;;;2.97;;
38224;SDS011;24025;48.138;11.428;2023-04-06T05:19:05;8.10;;;3.33;;
38224;SDS011;24025;48.138;11.428;2023-04-06T05:21:37;6.85;;;3.30;;
38224;SDS011;24025;48.138;11.428;2023-04-06T05:24:09;5.63;;;3.25;;
38224;SDS011;24025;48.138;11.428;2023-04-06T05:26:40;10.25;;;3.85;;
38224;SDS011;24025;48.138;11.428;2023-04-06T05:29:12;10.40;;;3.50;;
38224;SDS011;24025;48.138;11.428;2023-04-06T05:31:44;5.47;;;3.10;;
38224;SDS011;24025;48.138;11.428;2023-04-06T05:34:16;10.75;;;3.67;;
38224;SDS011;24025;48.138;11.428;2023-04-06T05:36:48;7.75;;;4.03;;
38224;SDS011;24025;48.138;11.428;2023-04-06T05:39:19;9.13;;;3.40;;
38224;SDS011;24025;48.138;11.428;2023-04-06T05:41:51;6.00;;;3.35;;
38224;SDS011;24025;48.138;11.428;2023-04-06T05:44:23;8.25;;;2.95;;
38224;SDS011;24025;48.138;11.428;2023-04-06T05:46:54;7.13;;;3.40;;
38224;SDS011;24025;48.138;11.428;2023-04-06T05:49:26;15.13;;;3.80;;
38224;SDS011;24025;48.138;11.428;2023-04-06T05:51:58;5.85;;;3.67;;
38224;SDS011;24025;48.138;11.428;2023-04-06T05:54:29;6.33;;;3.93;;
38224;SDS011;24025;48.138;11.428;2023-04-06T05:57:02;4.95;;;3.30;;
38224;SDS011;24025;48.138;11.428;2023-04-06T05:59:34;6.82;;;3.03;;
38224;SDS011;24025;48.138;11.428;2023-04-06T06:02:06;6.65;;;3.90;;
38224;SDS011;24025;48.138;11.428;2023-04-06T06:04:38;9.85;;;3.75;;
38224;SDS011;24025;48.138;11.428;2023-04-06T06:07:09;11.10;;;4.32;;
38224;SDS011;24025;48.138;11.428;2023-04-06T06:09:41;11.30;;;3.67;;
38224;SDS011;24025;48.138;11.428;2023-04-06T06:12:12;15.80;;;4.80;;
38224;SDS011;24025;48.138;11.428;2023-04-06T06:14:44;6.78;;;4.20;;
38224;SDS011;24025;48.138;11.428;2023-04-06T06:17:16;8.07;;;4.25;;
38224;SDS011;24025;48.138;11.428;2023-04-06T06:19:48;15.80;;;4.87;;
38224;SDS011;24025;48.138;11.428;2023-04-06T06:22:20;10.23;;;5.07;;
38224;SDS011;24025;48.138;11.428;2023-04-06T06:24:51;8.85;;;4.35;;
38224;SDS011;24025;48.138;11.428;2023-04-06T06:27:23;7.45;;;3.33;;
38224;SDS011;24025;48.138;11.428;2023-04-06T06:29:54;5.82;;;3.20;;
38224;SDS011;24025;48.138;11.428;2023-04-06T06:32:26;11.82;;;4.57;;
38224;SDS011;24025;48.138;11.428;2023-04-06T06:34:58;5.05;;;3.42;;
38224;SDS011;24025;48.138;11.428;2023-04-06T06:37:30;3.65;;;3.00;;
38224;SDS011;24025;48.138;11.428;2023-04-06T06:40:02;4.97;;;2.90;;
38224;SDS011;24025;48.138;11.428;2023-04-06T06:42:34;5.28;;;3.13;;
38224;SDS011;24025;48.138;11.428;2023-04-06T06:45:06;6.97;;;3.60;;
38224;SDS011;24025;48.138;11.428;2023-04-06T06:47:38;9.70;;;3.92;;
38224;SDS011;24025;48.138;11.428;2023-04-06T06:50:10;9.00;;;4.78;;
38224;SDS011;24025;48.138;11.428;2023-04-06T06:52:42;11.02;;;4.90;;
38224;SDS011;24025;48.138;11.428;2023-04-06T06:55:14;9.05;;;3.88;;
38224;SDS011;24025;48.138;11.428;2023-04-06T06:57:46;6.97;;;3.15;;
38224;SDS011;24025;48.138;11.428;2023-04-06T07:00:18;9.02;;;3.65;;
38224;SDS011;24025;48.138;11.428;2023-04-06T07:02:51;7.47;;;3.42;;
38224;SDS011;24025;48.138;11.428;2023-04-06T07:05:23;6.38;;;3.28;;
38224;SDS011;24025;48.138;11.428;2023-04-06T07:07:59;9.75;;;3.67;;
38224;SDS011;24025;48.138;11.428;2023-04-06T07:10:31;7.68;;;3.45;;
38224;SDS011;24025;48.138;11.428;2023-04-06T07:13:02;9.10;;;3.65;;
38224;SDS011;24025;48.138;11.428;2023-04-06T07:15:34;6.70;;;3.63;;
38224;SDS011;24025;48.138;11.428;2023-04-06T07:18:06;12.52;;;3.10;;
38224;SDS011;24025;48.138;11.428;2023-04-06T07:20:37;5.85;;;3.65;;
38224;SDS011;24025;48.138;11.428;2023-04-06T07:23:09;7.60;;;3.85;;
38224;SDS011;24025;48.138;11.428;2023-04-06T07:25:41;7.28;;;3.33;;
38224;SDS011;24025;48.138;11.428;2023-04-06T07:28:13;6.15;;;2.97;;
38224;SDS011;24025;48.138;11.428;2023-04-06T07:30:44;5.90;;;3.35;;
38224;SDS011;24025;48.138;11.428;2023-04-06T07:33:16;6.53;;;3.00;;
38224;SDS011;24025;48.138;11.428;2023-04-06T07:35:48;12.13;;;3.90;;
38224;SDS011;24025;48.138;11.428;2023-04-06T07:38:19;11.95;;;4.75;;
38224;SDS011;24025;48.138;11.428;2023-04-06T07:40:51;16.03;;;6.10;;
38224;SDS011;24025;48.138;11.428;2023-04-06T07:43:23;11.30;;;4.10;;
38224;SDS011;24025;48.138;11.428;2023-04-06T07:45:55;7.13;;;4.32;;
38224;SDS011;24025;48.138;11.428;2023-04-06T07:48:28;10.02;;;4.55;;
38224;SDS011;24025;48.138;11.428;2023-04-06T07:51:00;17.08;;;5.18;;
38224;SDS011;24025;48.138;11.428;2023-04-06T07:53:36;13.77;;;4.43;;
38224;SDS011;24025;48.138;11.428;2023-04-06T07:56:08;7.90;;;4.03;;
38224;SDS011;24025;48.138;11.428;2023-04-06T07:58:39;6.82;;;3.92;;
38224;SDS011;24025;48.138;11.428;2023-04-06T08:01:11;6.77;;;3.63;;
38224;SDS011;24025;48.138;11.428;2023-04-06T08:03:43;7.95;;;3.92;;
38224;SDS011;24025;48.138;11.428;2023-04-06T08:06:15;5.68;;;3.10;;
38224;SDS011;24025;48.138;11.428;2023-04-06T08:08:47;6.72;;;3.00;;
38224;SDS011;24025;48.138;11.428;2023-04-06T08:11:18;8.33;;;3.70;;
38224;SDS011;24025;48.138;11.428;2023-04-06T08:13:53;6.72;;;4.20;;
38224;SDS011;24025;48.138;11.428;2023-04-06T08:16:27;10.52;;;5.07;;
38224;SDS011;24025;48.138;11.428;2023-04-06T08:18:59;6.97;;;3.77;;
38224;SDS011;24025;48.138;11.428;2023-04-06T08:21:30;10.87;;;4.47;;
38224;SDS011;24025;48.138;11.428;2023-04-06T08:24:02;7.63;;;4.45;;
38224;SDS011;24025;48.138;11.428;2023-04-06T08:26:34;14.50;;;4.55;;
38224;SDS011;24025;48.138;11.428;2023-04-06T08:29:06;8.85;;;4.15;;
38224;SDS011;24025;48.138;11.428;2023-04-06T08:31:40;13.65;;;4.53;;
38224;SDS011;24025;48.138;11.428;2023-04-06T08:34:12;7.82;;;4.07;;
38224;SDS011;24025;48.138;11.428;2023-04-06T08:36:45;6.78;;;4.32;;
38224;SDS011;24025;48.138;11.428;2023-04-06T08:39:18;12.13;;;3.47;;
38224;SDS011;24025;48.138;11.428;2023-04-06T08:41:56;8.52;;;4.10;;
38224;SDS011;24025;48.138;11.428;2023-04-06T08:44:29;9.52;;;4.32;;
38224;SDS011;24025;48.138;11.428;2023-04-06T08:47:04;8.00;;;4.28;;
38224;SDS011;24025;48.138;11.428;2023-04-06T08:49:37;8.82;;;4.53;;
38224;SDS011;24025;48.138;11.428;2023-04-06T08:54:42;7.03;;;3.73;;
38224;SDS011;24025;48.138;11.428;2023-04-06T08:57:13;9.33;;;4.33;;
38224;SDS011;24025;48.138;11.428;2023-04-06T08:59:46;7.65;;;3.78;;
38224;SDS011;24025;48.138;11.428;2023-04-06T09:02:18;6.90;;;3.92;;
38224;SDS011;24025;48.138;11.428;2023-04-06T09:04:52;8.48;;;4.05;;
38224;SDS011;24025;48.138;11.428;2023-04-06T09:07:24;9.02;;;4.18;;
38224;SDS011;24025;48.138;11.428;2023-04-06T09:09:56;10.73;;;4.45;;
38224;SDS011;24025;48.138;11.428;2023-04-06T09:12:28;9.80;;;4.80;;
38224;SDS011;24025;48.138;11.428;2023-04-06T09:15:01;5.20;;;3.42;;
38224;SDS011;24025;48.138;11.428;2023-04-06T09:17:33;7.05;;;4.18;;
38224;SDS011;24025;48.138;11.428;2023-04-06T09:20:05;10.02;;;4.50;;
38224;SDS011;24025;48.138;11.428;2023-04-06T09:22:39;8.90;;;4.38;;
38224;SDS011;24025;48.138;11.428;2023-04-06T09:25:18;8.30;;;4.30;;
38224;SDS011;24025;48.138;11.428;2023-04-06T09:28:02;10.75;;;5.03;;
38224;SDS011;24025;48.138;11.428;2023-04-06T09:30:35;7.00;;;4.40;;
38224;SDS011;24025;48.138;11.428;2023-04-06T09:33:07;9.48;;;4.75;;
38224;SDS011;24025;48.138;11.428;2023-04-06T09:35:39;9.00;;;4.38;;
38224;SDS011;24025;48.138;11.428;2023-04-06T09:38:11;7.38;;;4.07;;
38224;SDS011;24025;48.138;11.428;2023-04-06T09:40:50;7.03;;;3.80;;
38224;SDS011;24025;48.138;11.428;2023-04-06T09:43:31;7.68;;;4.63;;
38224;SDS011;24025;48.138;11.428;2023-04-06T09:46:02;10.95;;;4.93;;
38224;SDS011;24025;48.138;11.428;2023-04-06T09:48:35;9.02;;;4.80;;
38224;SDS011;24025;48.138;11.428;2023-04-06T09:51:08;9.85;;;4.45;;
38224;SDS011;24025;48.138;11.428;2023-04-06T09:53:46;7.28;;;4.40;;
38224;SDS011;24025;48.138;11.428;2023-04-06T09:56:23;11.48;;;5.10;;
38224;SDS011;24025;48.138;11.428;2023-04-06T09:59:01;8.35;;;5.30;;
38224;SDS011;24025;48.138;11.428;2023-04-06T10:01:36;9.95;;;4.82;;
38224;SDS011;24025;48.138;11.428;2023-04-06T10:07:17;9.00;;;5.20;;
38224;SDS011;24025;48.138;11.428;2023-04-06T10:09:49;8.32;;;5.43;;
38224;SDS011;24025;48.138;11.428;2023-04-06T10:12:22;15.15;;;5.93;;
38224;SDS011;24025;48.138;11.428;2023-04-06T10:14:54;20.88;;;6.35;;
38224;SDS011;24025;48.138;11.428;2023-04-06T10:17:27;8.75;;;4.68;;
38224;SDS011;24025;48.138;11.428;2023-04-06T10:25:31;10.10;;;5.13;;
38224;SDS011;24025;48.138;11.428;2023-04-06T10:28:06;11.13;;;6.22;;
38224;SDS011;24025;48.138;11.428;2023-04-06T10:30:41;7.72;;;5.18;;
38224;SDS011;24025;48.138;11.428;2023-04-06T10:33:18;9.18;;;5.53;;
38224;SDS011;24025;48.138;11.428;2023-04-06T10:35:50;7.95;;;4.53;;
38224;SDS011;24025;48.138;11.428;2023-04-06T10:38:35;10.00;;;5.65;;
38224;SDS011;24025;48.138;11.428;2023-04-06T10:41:12;12.45;;;5.93;;
38224;SDS011;24025;48.138;11.428;2023-04-06T10:43:44;8.00;;;5.18;;
38224;SDS011;24025;48.138;11.428;2023-04-06T10:46:24;7.68;;;5.10;;
38224;SDS011;24025;48.138;11.428;2023-04-06T10:48:57;11.20;;;6.05;;
38224;SDS011;24025;48.138;11.428;2023-04-06T10:51:29;10.90;;;5.38;;
38224;SDS011;24025;48.138;11.428;2023-04-06T10:54:02;8.90;;;5.30;;
38224;SDS011;24025;48.138;11.428;2023-04-06T10:56:36;6.88;;;4.93;;
38224;SDS011;24025;48.138;11.428;2023-04-06T10:59:10;9.60;;;5.18;;
38224;SDS011;24025;48.138;11.428;2023-04-06T11:01:43;9.50;;;4.38;;
38224;SDS011;24025;48.138;11.428;2023-04-06T11:04:17;7.85;;;4.97;;
38224;SDS011;24025;48.138;11.428;2023-04-06T11:06:50;6.55;;;4.30;;
38224;SDS011;24025;48.138;11.428;2023-04-06T11:11:57;5.88;;;4.13;;
38224;SDS011;24025;48.138;11.428;2023-04-06T11:14:29;6.55;;;4.18;;
38224;SDS011;24025;48.138;11.428;2023-04-06T11:17:00;7.55;;;4.25;;
38224;SDS011;24025;48.138;11.428;2023-04-06T11:19:32;7.47;;;4.13;;
38224;SDS011;24025;48.138;11.428;2023-04-06T11:22:08;7.85;;;5.05;;
38224;SDS011;24025;48.138;11.428;2023-04-06T11:24:40;7.05;;;4.60;;
38224;SDS011;24025;48.138;11.428;2023-04-06T11:27:12;11.10;;;5.18;;
38224;SDS011;24025;48.138;11.428;2023-04-06T11:29:46;5.13;;;4.47;;
38224;SDS011;24025;48.138;11.428;2023-04-06T11:32:21;8.00;;;5.38;;
38224;SDS011;24025;48.138;11.428;2023-04-06T11:34:54;10.57;;;5.20;;
38224;SDS011;24025;48.138;11.428;2023-04-06T11:37:29;6.85;;;4.25;;
38224;SDS011;24025;48.138;11.428;2023-04-06T11:40:00;8.45;;;5.32;;
38224;SDS011;24025;48.138;11.428;2023-04-06T11:42:32;11.70;;;4.95;;
38224;SDS011;24025;48.138;11.428;2023-04-06T11:45:06;5.05;;;4.25;;
38224;SDS011;24025;48.138;11.428;2023-04-06T11:47:38;7.78;;;4.65;;
38224;SDS011;24025;48.138;11.428;2023-04-06T11:50:11;4.55;;;3.63;;
38224;SDS011;24025;48.138;11.428;2023-04-06T11:52:44;6.30;;;4.10;;
38224;SDS011;24025;48.138;11.428;2023-04-06T11:55:17;8.15;;;4.07;;
38224;SDS011;24025;48.138;11.428;2023-04-06T11:57:50;5.53;;;3.90;;
38224;SDS011;24025;48.138;11.428;2023-04-06T12:00:22;9.02;;;3.85;;
38224;SDS011;24025;48.138;11.428;2023-04-06T12:02:55;6.75;;;4.03;;
38224;SDS011;24025;48.138;11.428;2023-04-06T12:05:27;7.32;;;4.13;;
38224;SDS011;24025;48.138;11.428;2023-04-06T12:07:59;8.10;;;3.63;;
38224;SDS011;24025;48.138;11.428;2023-04-06T12:10:33;6.10;;;4.63;;
38224;SDS011;24025;48.138;11.428;2023-04-06T12:13:05;6.47;;;3.60;;
38224;SDS011;24025;48.138;11.428;2023-04-06T12:15:37;7.40;;;3.70;;
38224;SDS011;24025;48.138;11.428;2023-04-06T12:18:08;3.85;;;3.45;;
38224;SDS011;24025;48.138;11.428;2023-04-06T12:20:40;4.95;;;3.30;;
38224;SDS011;24025;48.138;11.428;2023-04-06T12:23:11;5.18;;;3.17;;
38224;SDS011;24025;48.138;11.428;2023-04-06T12:25:43;7.60;;;4.18;;
38224;SDS011;24025;48.138;11.428;2023-04-06T12:28:15;4.43;;;3.50;;
38224;SDS011;24025;48.138;11.428;2023-04-06T12:30:46;5.72;;;3.80;;
38224;SDS011;24025;48.138;11.428;2023-04-06T12:33:18;5.68;;;4.00;;
38224;SDS011;24025;48.138;11.428;2023-04-06T12:35:49;8.05;;;4.28;;
38224;SDS011;24025;48.138;11.428;2023-04-06T12:38:21;7.03;;;4.72;;
38224;SDS011;24025;48.138;11.428;2023-04-06T12:40:53;6.25;;;4.72;;
38224;SDS011;24025;48.138;11.428;2023-04-06T12:43:24;6.30;;;4.85;;
38224;SDS011;24025;48.138;11.428;2023-04-06T12:45:56;7.53;;;4.60;;
38224;SDS011;24025;48.138;11.428;2023-04-06T12:48:28;7.53;;;4.72;;
38224;SDS011;24025;48.138;11.428;2023-04-06T12:51:00;4.63;;;3.78;;
38224;SDS011;24025;48.138;11.428;2023-04-06T12:53:33;7.32;;;4.53;;
38224;SDS011;24025;48.138;11.428;2023-04-06T12:56:13;5.35;;;4.60;;
38224;SDS011;24025;48.138;11.428;2023-04-06T12:58:46;6.05;;;4.03;;
38224;SDS011;24025;48.138;11.428;2023-04-06T13:01:18;5.43;;;4.45;;
38224;SDS011;24025;48.138;11.428;2023-04-06T13:03:50;5.20;;;4.00;;
38224;SDS011;24025;48.138;11.428;2023-04-06T13:06:21;6.40;;;4.15;;
38224;SDS011;24025;48.138;11.428;2023-04-06T13:08:53;6.30;;;4.25;;
38224;SDS011;24025;48.138;11.428;2023-04-06T13:11:25;5.03;;;3.55;;
38224;SDS011;24025;48.138;11.428;2023-04-06T13:13:59;5.68;;;3.72;;
38224;SDS011;24025;48.138;11.428;2023-04-06T13:16:31;5.65;;;3.13;;
38224;SDS011;24025;48.138;11.428;2023-04-06T13:21:34;4.82;;;4.03;;
38224;SDS011;24025;48.138;11.428;2023-04-06T13:24:06;6.13;;;3.85;;
38224;SDS011;24025;48.138;11.428;2023-04-06T13:26:38;6.43;;;3.92;;
38224;SDS011;24025;48.138;11.428;2023-04-06T13:29:09;6.88;;;3.35;;
38224;SDS011;24025;48.138;11.428;2023-04-06T13:31:41;6.05;;;3.72;;
38224;SDS011;24025;48.138;11.428;2023-04-06T13:34:12;4.50;;;3.55;;
38224;SDS011;24025;48.138;11.428;2023-04-06T13:36:44;5.15;;;4.00;;
38224;SDS011;24025;48.138;11.428;2023-04-06T13:39:16;6.38;;;3.67;;
38224;SDS011;24025;48.138;11.428;2023-04-06T13:41:47;5.18;;;3.58;;
38224;SDS011;24025;48.138;11.428;2023-04-06T13:44:19;6.07;;;3.70;;
38224;SDS011;24025;48.138;11.428;2023-04-06T13:46:51;5.25;;;3.65;;
38224;SDS011;24025;48.138;11.428;2023-04-06T13:49:22;6.82;;;3.90;;
38224;SDS011;24025;48.138;11.428;2023-04-06T13:51:54;5.63;;;3.13;;
38224;SDS011;24025;48.138;11.428;2023-04-06T13:54:26;5.10;;;3.58;;
38224;SDS011;24025;48.138;11.428;2023-04-06T13:59:32;5.25;;;3.28;;
38224;SDS011;24025;48.138;11.428;2023-04-06T14:02:07;6.57;;;3.72;;
38224;SDS011;24025;48.138;11.428;2023-04-06T14:04:40;6.00;;;3.83;;
38224;SDS011;24025;48.138;11.428;2023-04-06T14:07:12;8.48;;;3.88;;
38224;SDS011;24025;48.138;11.428;2023-04-06T14:09:43;5.47;;;3.75;;
38224;SDS011;24025;48.138;11.428;2023-04-06T14:12:15;5.50;;;3.33;;
38224;SDS011;24025;48.138;11.428;2023-04-06T14:24:53;4.53;;;3.15;;
38224;SDS011;24025;48.138;11.428;2023-04-06T14:27:24;4.47;;;3.08;;
38224;SDS011;24025;48.138;11.428;2023-04-06T14:29:56;4.43;;;2.83;;
38224;SDS011;24025;48.138;11.428;2023-04-06T14:32:27;7.95;;;3.33;;
38224;SDS011;24025;48.138;11.428;2023-04-06T14:34:59;3.47;;;2.53;;
38224;SDS011;24025;48.138;11.428;2023-04-06T14:37:30;3.50;;;2.75;;
38224;SDS011;24025;48.138;11.428;2023-04-06T14:40:02;4.65;;;2.60;;
38224;SDS011;24025;48.138;11.428;2023-04-06T14:42:35;4.28;;;2.58;;
38224;SDS011;24025;48.138;11.428;2023-04-06T14:45:07;3.38;;;2.85;;
38224;SDS011;24025;48.138;11.428;2023-04-06T14:47:39;5.32;;;2.58;;
38224;SDS011;24025;48.138;11.428;2023-04-06T14:50:11;6.53;;;2.15;;
38224;SDS011;24025;48.138;11.428;2023-04-06T14:52:42;3.13;;;2.58;;
38224;SDS011;24025;48.138;11.428;2023-04-06T14:55:14;3.38;;;2.10;;
38224;SDS011;24025;48.138;11.428;2023-04-06T14:57:46;2.35;;;2.15;;
38224;SDS011;24025;48.138;11.428;2023-04-06T15:00:18;6.70;;;2.15;;
38224;SDS011;24025;48.138;11.428;2023-04-06T15:02:50;4.20;;;2.35;;
38224;SDS011;24025;48.138;11.428;2023-04-06T15:05:22;3.53;;;2.63;;
38224;SDS011;24025;48.138;11.428;2023-04-06T15:07:53;3.17;;;2.55;;
38224;SDS011;24025;48.138;11.428;2023-04-06T15:10:25;3.28;;;2.03;;
38224;SDS011;24025;48.138;11.428;2023-04-06T15:12:56;4.55;;;1.80;;
38224;SDS011;24025;48.138;11.428;2023-04-06T15:15:28;3.05;;;2.33;;
38224;SDS011;24025;48.138;11.428;2023-04-06T15:17:59;2.58;;;2.08;;
38224;SDS011;24025;48.138;11.428;2023-04-06T15:20:33;4.45;;;2.67;;
38224;SDS011;24025;48.138;11.428;2023-04-06T15:23:05;2.90;;;2.33;;
38224;SDS011;24025;48.138;11.428;2023-04-06T15:25:38;3.35;;;2.30;;
38224;SDS011;24025;48.138;11.428;2023-04-06T15:28:12;5.05;;;2.50;;
38224;SDS011;24025;48.138;11.428;2023-04-06T15:30:44;3.95;;;2.60;;
38224;SDS011;24025;48.138;11.428;2023-04-06T15:33:15;8.05;;;2.67;;
38224;SDS011;24025;48.138;11.428;2023-04-06T15:35:47;4.68;;;2.28;;
38224;SDS011;24025;48.138;11.428;2023-04-06T15:40:51;8.40;;;3.13;;
38224;SDS011;24025;48.138;11.428;2023-04-06T15:43:23;7.40;;;2.83;;
38224;SDS011;24025;48.138;11.428;2023-04-06T15:45:55;6.50;;;3.08;;
38224;SDS011;24025;48.138;11.428;2023-04-06T15:48:27;4.43;;;2.58;;
38224;SDS011;24025;48.138;11.428;2023-04-06T15:51:02;3.25;;;2.78;;
38224;SDS011;24025;48.138;11.428;2023-04-06T15:53:33;2.75;;;2.53;;
38224;SDS011;24025;48.138;11.428;2023-04-06T15:56:07;4.40;;;2.50;;